aviador You're here:

KMQY Decoded Metar

SMYRNA in TN, USA
Report Time2017-08-16 18:56:00
UTC Time2017-08-16 19:32:53
Flight Rules vfr VFR
Wind180° at 07 kt
W.Decomp.*RWY 19: 6.9 kt HW 1 kt LCW
RWY 14: 5.2 kt HW 4.7 kt RCW
W.Rank180° ranks 2
Current wind is above 180° avg. (6.6)
Visibility9999 m
Phenomena:N/A
Clouds:Scattered 031 Hf
Expected CloudBase > 2,800 ft AGL from Temp-Dew spread
CeilingNone
Temp32°C (ISA +18)
Dew Point25°C (67% RH)
Heat Index39.3°C
QNH1017 hPa
Density Alt2,890 ft
Elevation545 ft
Report Wrong Elevation
Raw Report
KMQY 161856Z 18007KT 10SM SCT031 32/25 A3002 RMK AO2 SLP043
T03170250=

Extra information for KMQY:More info

Metar Taf Metar & Taf Last 4 Metars F.Rules Stats Wind Profile Meteogram Temp Stats Airport Information Weather charts Add Link Nearby VenuesMetar ALERT Operation Metar Decoded Social comments

AIRNAV info for KMQY